In Rescue
 
Open Full Screen Window  High Contrast Mode
June 22, 2024 8:51 PM CDT
Weather Information
Wind Direction
  ---
Wind Speed
  00 kt (0 mph)
Wind Gust
  00 kt (0 mph)
Altimeter
29.86 in
Visibility
10 SM
Temperature
21° C
70° F
Dewpoint
18° C
64° F
Humidity
83%
Sky Condition
Scattered @ 4,800 ft
VFR

METAR KY63 230151Z AUTO 00000KT 10SM SCT048 21/18 A2986 RMK AO2 T02050182

FAA Disclaimer: The data displayed is for advisory purposes only and is not to be used for flight planning or operations.